createdAt,value
2022-08-26T00:01:51.331Z,6.45
2022-08-26T00:04:18.788Z,7.10
2022-08-26T00:06:46.542Z,6.68
2022-08-26T00:09:16.147Z,6.85
2022-08-26T00:11:43.585Z,6.78
2022-08-26T00:14:10.948Z,6.55
2022-08-26T00:16:41.037Z,6.40
2022-08-26T00:19:14.708Z,6.25
2022-08-26T00:21:41.937Z,6.95
2022-08-26T00:24:09.297Z,6.40
2022-08-26T00:26:37.222Z,6.45
2022-08-26T00:29:04.479Z,7.30
2022-08-26T00:31:32.765Z,7.25
2022-08-26T00:34:00.479Z,6.82
2022-08-26T00:36:29.549Z,7.25
2022-08-26T00:38:57.118Z,6.88
2022-08-26T00:41:24.463Z,7.35
2022-08-26T00:43:52.087Z,6.95
2022-08-26T00:46:21.714Z,6.63
2022-08-26T00:48:52.625Z,6.45
2022-08-26T00:51:21.865Z,7.00
2022-08-26T00:53:56.030Z,6.53
2022-08-26T00:56:26.669Z,6.65
2022-08-26T00:58:54.892Z,7.00
2022-08-26T01:01:23.135Z,6.68
2022-08-26T01:03:50.598Z,7.38
2022-08-26T01:06:17.845Z,6.47
2022-08-26T01:08:45.674Z,6.93
2022-08-26T01:11:13.190Z,6.93
2022-08-26T01:13:41.015Z,7.38
2022-08-26T01:16:09.456Z,7.50
2022-08-26T01:18:37.286Z,6.85
2022-08-26T01:21:23.116Z,7.05
2022-08-26T01:23:57.364Z,7.72
2022-08-26T01:26:31.557Z,7.00
2022-08-26T01:29:00.936Z,7.25
2022-08-26T01:31:30.144Z,7.68
2022-08-26T01:34:04.894Z,7.05
2022-08-26T01:36:32.053Z,7.18
2022-08-26T01:38:59.299Z,6.90
2022-08-26T01:41:29.243Z,6.70
2022-08-26T01:43:57.881Z,9.05
2022-08-26T01:46:26.782Z,10.40
2022-08-26T01:48:55.406Z,11.25
2022-08-26T01:51:24.308Z,12.40
2022-08-26T01:53:51.516Z,11.02
2022-08-26T01:56:19.890Z,10.02
2022-08-26T01:58:51.224Z,8.23
2022-08-26T02:04:09.075Z,7.80
2022-08-26T02:06:37.186Z,7.45
2022-08-26T02:09:04.924Z,7.38
2022-08-26T02:11:32.670Z,8.00
2022-08-26T02:14:02.789Z,7.20
2022-08-26T02:16:33.450Z,7.20
2022-08-26T02:19:02.386Z,6.60
2022-08-26T02:21:31.161Z,6.87
2022-08-26T02:24:08.237Z,7.13
2022-08-26T02:26:36.059Z,6.38
2022-08-26T02:29:06.147Z,6.93
2022-08-26T02:31:34.952Z,7.57
2022-08-26T02:34:15.661Z,6.63
2022-08-26T02:39:11.053Z,6.70
2022-08-26T02:41:45.025Z,6.55
2022-08-26T02:44:12.610Z,7.10
2022-08-26T02:46:39.927Z,7.63
2022-08-26T02:49:07.426Z,6.90
2022-08-26T02:51:34.737Z,7.53
2022-08-26T02:54:01.937Z,7.13
2022-08-26T02:56:29.371Z,6.22
2022-08-26T02:58:56.805Z,6.68
2022-08-26T03:01:29.910Z,7.70
2022-08-26T03:03:57.793Z,7.13
2022-08-26T03:06:25.076Z,7.30
2022-08-26T03:08:52.670Z,6.82
2022-08-26T03:11:20.056Z,7.40
2022-08-26T03:13:47.189Z,7.38
2022-08-26T03:16:15.056Z,7.20
2022-08-26T03:18:43.179Z,7.90
2022-08-26T03:21:19.971Z,7.10
2022-08-26T03:23:47.461Z,7.25
2022-08-26T03:26:15.687Z,7.53
2022-08-26T03:29:02.355Z,7.82
2022-08-26T03:31:31.170Z,7.18
2022-08-26T03:33:59.762Z,7.30
2022-08-26T03:36:27.649Z,7.47
2022-08-26T03:38:54.809Z,6.82
2022-08-26T03:41:22.061Z,7.47
2022-08-26T03:43:51.069Z,7.50
2022-08-26T03:46:19.290Z,7.32
2022-08-26T03:48:46.745Z,7.28
2022-08-26T03:51:18.047Z,6.72
2022-08-26T03:53:46.012Z,6.80
2022-08-26T03:56:13.312Z,6.57
2022-08-26T03:58:42.896Z,6.50
2022-08-26T04:01:10.201Z,7.22
2022-08-26T04:03:56.136Z,6.95
2022-08-26T04:06:36.798Z,7.03
2022-08-26T04:09:09.024Z,6.93
2022-08-26T04:11:39.350Z,7.30
2022-08-26T04:14:08.526Z,6.60
2022-08-26T04:16:35.819Z,7.13
2022-08-26T04:19:03.449Z,7.15
2022-08-26T04:21:30.660Z,7.18
2022-08-26T04:23:58.275Z,7.05
2022-08-26T04:26:26.336Z,7.00
2022-08-26T04:28:54.573Z,7.40
2022-08-26T04:31:22.236Z,7.38
2022-08-26T04:33:50.780Z,7.13
2022-08-26T04:36:19.777Z,6.97
2022-08-26T04:38:48.064Z,6.38
2022-08-26T04:41:16.796Z,6.65
2022-08-26T04:43:44.432Z,6.30
2022-08-26T04:46:13.000Z,7.35
2022-08-26T04:48:41.395Z,7.63
2022-08-26T04:51:09.854Z,6.47
2022-08-26T04:53:37.731Z,7.15
2022-08-26T04:56:05.217Z,6.82
2022-08-26T04:58:32.406Z,6.88
2022-08-26T05:01:00.339Z,6.43
2022-08-26T05:03:30.326Z,6.60
2022-08-26T05:05:58.238Z,6.05
2022-08-26T05:08:25.589Z,7.00
2022-08-26T05:10:56.551Z,6.72
2022-08-26T05:13:25.492Z,6.50
2022-08-26T05:15:52.915Z,7.15
2022-08-26T05:18:22.731Z,7.00
2022-08-26T05:20:51.671Z,7.33
2022-08-26T05:23:22.953Z,6.35
2022-08-26T05:25:53.643Z,6.95
2022-08-26T05:28:23.324Z,6.78
2022-08-26T05:30:50.810Z,7.30
2022-08-26T05:33:19.243Z,6.60
2022-08-26T05:35:46.983Z,9.13
2022-08-26T05:38:16.997Z,6.18
2022-08-26T05:40:45.570Z,6.30
2022-08-26T05:43:13.599Z,6.35
2022-08-26T05:45:46.299Z,6.13
2022-08-26T05:48:14.540Z,6.85
2022-08-26T05:50:43.528Z,6.05
2022-08-26T05:53:11.377Z,6.55
2022-08-26T05:55:44.141Z,6.13
2022-08-26T05:58:12.057Z,6.72
2022-08-26T06:00:39.687Z,7.78
2022-08-26T06:03:09.317Z,6.60
2022-08-26T06:05:40.038Z,6.85
2022-08-26T06:08:14.480Z,6.57
2022-08-26T06:11:04.732Z,7.10
2022-08-26T06:13:34.022Z,6.13
2022-08-26T06:16:03.897Z,7.43
2022-08-26T06:18:35.513Z,6.78
2022-08-26T06:21:17.028Z,7.38
2022-08-26T06:24:03.708Z,6.63
2022-08-26T06:26:31.267Z,6.32
2022-08-26T06:28:58.844Z,7.10
2022-08-26T06:31:26.884Z,6.38
2022-08-26T06:33:55.250Z,7.32
2022-08-26T06:36:24.088Z,6.97
2022-08-26T06:38:52.151Z,6.75
2022-08-26T06:41:23.521Z,6.43
2022-08-26T06:43:51.087Z,7.22
2022-08-26T06:46:19.838Z,7.03
2022-08-26T06:48:47.673Z,7.43
2022-08-26T06:51:19.315Z,7.28
2022-08-26T06:53:50.584Z,7.50
2022-08-26T06:56:20.752Z,7.03
2022-08-26T06:58:48.978Z,7.43
2022-08-26T07:01:17.003Z,7.07
2022-08-26T07:03:46.600Z,7.53
2022-08-26T07:06:14.285Z,6.90
2022-08-26T07:08:41.654Z,7.03
2022-08-26T07:11:10.175Z,7.90
2022-08-26T07:13:38.084Z,7.20
2022-08-26T07:16:09.024Z,6.35
2022-08-26T07:18:37.489Z,7.57
2022-08-26T07:21:08.577Z,6.57
2022-08-26T07:23:35.913Z,7.10
2022-08-26T07:26:07.372Z,6.82
2022-08-26T07:28:35.303Z,7.80
2022-08-26T07:31:10.147Z,7.38
2022-08-26T07:33:37.889Z,7.05
2022-08-26T07:36:07.326Z,7.10
2022-08-26T07:38:35.018Z,7.00
2022-08-26T07:41:02.199Z,6.82
2022-08-26T07:43:30.054Z,7.03
2022-08-26T07:45:57.785Z,6.97
2022-08-26T07:48:25.359Z,6.25
2022-08-26T07:50:53.761Z,6.88
2022-08-26T07:53:21.846Z,6.65
2022-08-26T07:55:51.753Z,6.93
2022-08-26T07:58:19.278Z,6.45
2022-08-26T08:00:47.603Z,6.68
2022-08-26T08:03:15.500Z,7.82
2022-08-26T08:05:44.355Z,6.75
2022-08-26T08:10:53.613Z,5.97
2022-08-26T08:13:20.914Z,6.57
2022-08-26T08:15:48.065Z,6.03
2022-08-26T08:18:17.625Z,6.47
2022-08-26T08:20:59.478Z,6.88
2022-08-26T08:23:35.534Z,6.15
2022-08-26T08:26:03.499Z,6.55
2022-08-26T08:28:30.924Z,6.32
2022-08-26T08:30:58.245Z,5.88
2022-08-26T08:33:26.696Z,5.38
2022-08-26T08:35:55.027Z,6.10
2022-08-26T08:38:22.233Z,5.68
2022-08-26T08:40:49.873Z,4.95
2022-08-26T08:43:30.513Z,6.10
2022-08-26T08:46:01.297Z,5.30
2022-08-26T08:48:34.039Z,5.07
2022-08-26T08:53:28.393Z,5.18
2022-08-26T08:55:58.744Z,5.32
2022-08-26T08:58:32.387Z,5.03
2022-08-26T09:01:02.988Z,4.88
2022-08-26T09:03:37.735Z,4.43
2022-08-26T09:06:16.927Z,4.60
2022-08-26T09:08:45.528Z,4.70
2022-08-26T09:11:13.769Z,4.40
2022-08-26T09:13:44.728Z,4.07
2022-08-26T09:16:16.334Z,3.85
2022-08-26T09:18:49.267Z,3.25
2022-08-26T09:21:18.035Z,4.00
2022-08-26T09:23:49.285Z,3.35
2022-08-26T09:26:16.867Z,3.20
2022-08-26T09:28:48.798Z,3.05
2022-08-26T09:31:21.077Z,3.22
2022-08-26T09:33:48.776Z,3.20
2022-08-26T09:36:26.252Z,3.35
2022-08-26T09:38:55.157Z,2.88
2022-08-26T09:41:27.007Z,3.03
2022-08-26T09:44:15.629Z,2.95
2022-08-26T09:46:54.994Z,2.90
2022-08-26T09:49:25.129Z,2.58
2022-08-26T09:52:04.711Z,2.83
2022-08-26T09:54:33.571Z,2.70
2022-08-26T09:57:19.110Z,2.95
2022-08-26T09:59:46.716Z,2.38
2022-08-26T10:02:35.251Z,3.28
2022-08-26T10:05:09.261Z,2.83
2022-08-26T10:07:48.814Z,3.15
2022-08-26T10:10:25.862Z,2.30
2022-08-26T10:12:56.744Z,2.25
2022-08-26T10:15:27.197Z,2.53
2022-08-26T10:18:17.499Z,2.60
2022-08-26T10:21:14.673Z,2.30
2022-08-26T10:23:50.199Z,2.10
2022-08-26T10:26:28.461Z,1.80
2022-08-26T10:29:06.287Z,2.00
2022-08-26T10:31:40.957Z,1.90
2022-08-26T10:34:09.441Z,1.58
2022-08-26T10:37:14.724Z,1.95
2022-08-26T10:39:42.796Z,1.73
2022-08-26T10:42:28.799Z,1.80
2022-08-26T10:44:58.678Z,1.60
2022-08-26T10:47:29.118Z,1.80
2022-08-26T10:50:03.016Z,1.55
2022-08-26T10:52:42.858Z,1.70
2022-08-26T10:55:17.487Z,1.63
2022-08-26T10:57:51.019Z,1.55
2022-08-26T11:00:43.888Z,1.98
2022-08-26T11:03:21.991Z,1.60
2022-08-26T11:06:10.257Z,2.25
2022-08-26T11:08:45.929Z,2.28
2022-08-26T11:11:13.081Z,2.55
2022-08-26T11:14:00.289Z,2.30
2022-08-26T11:16:44.957Z,2.50
2022-08-26T11:19:50.532Z,2.58
2022-08-26T11:22:26.016Z,2.65
2022-08-26T11:24:53.493Z,2.80
2022-08-26T11:27:26.401Z,2.60
2022-08-26T11:29:56.437Z,2.35
2022-08-26T11:32:46.748Z,2.33
2022-08-26T11:35:21.945Z,2.63
2022-08-26T11:37:49.076Z,2.55
2022-08-26T11:40:25.731Z,2.70
2022-08-26T11:42:55.857Z,3.13
2022-08-26T11:45:34.716Z,2.53
2022-08-26T11:48:16.891Z,2.72
2022-08-26T11:50:54.545Z,2.78
2022-08-26T11:53:22.890Z,2.00
2022-08-26T11:55:51.170Z,2.00
2022-08-26T11:58:21.543Z,1.80
2022-08-26T12:00:51.950Z,1.88
2022-08-26T12:03:21.643Z,2.20
2022-08-26T12:05:52.078Z,1.95
2022-08-26T12:08:21.733Z,2.55
2022-08-26T12:10:49.068Z,2.28
2022-08-26T12:13:22.252Z,2.05
2022-08-26T12:15:55.643Z,1.98
2022-08-26T12:18:29.188Z,2.20
2022-08-26T12:20:58.699Z,2.03
2022-08-26T12:23:37.630Z,2.40
2022-08-26T12:26:08.902Z,1.90
2022-08-26T12:28:48.387Z,2.33
2022-08-26T12:31:22.465Z,2.47
2022-08-26T12:33:49.984Z,2.20
2022-08-26T12:36:22.513Z,2.15
2022-08-26T12:38:50.068Z,2.47
2022-08-26T12:41:35.773Z,2.15
2022-08-26T12:44:03.203Z,2.35
2022-08-26T12:46:30.571Z,2.25
2022-08-26T12:49:01.275Z,2.20
2022-08-26T12:51:30.224Z,2.60
2022-08-26T12:53:58.118Z,2.50
2022-08-26T12:56:25.553Z,2.40
2022-08-26T12:59:25.412Z,2.67
2022-08-26T13:01:53.606Z,2.60
2022-08-26T13:04:38.649Z,3.05
2022-08-26T13:07:14.993Z,2.55
2022-08-26T13:09:42.345Z,2.83
2022-08-26T13:12:11.685Z,2.65
2022-08-26T13:14:40.505Z,2.58
2022-08-26T13:17:07.960Z,2.50
2022-08-26T13:19:35.808Z,2.65
2022-08-26T13:22:03.938Z,2.38
2022-08-26T13:24:34.383Z,2.70
2022-08-26T13:27:01.903Z,2.85
2022-08-26T13:29:29.179Z,2.35
2022-08-26T13:31:58.813Z,3.05
2022-08-26T13:34:26.191Z,2.53
2022-08-26T13:36:54.451Z,2.42
2022-08-26T13:39:22.145Z,2.30
2022-08-26T13:41:49.436Z,2.67
2022-08-26T13:44:16.631Z,2.42
2022-08-26T13:49:16.122Z,2.22
2022-08-26T13:51:43.324Z,2.00
2022-08-26T13:54:10.574Z,2.38
2022-08-26T13:56:37.754Z,2.40
2022-08-26T13:59:06.449Z,2.47
2022-08-26T14:01:34.570Z,2.20
2022-08-26T14:04:02.939Z,1.98
2022-08-26T14:06:30.479Z,2.00
2022-08-26T14:08:58.244Z,2.50
2022-08-26T14:11:25.513Z,2.17
2022-08-26T14:13:52.786Z,2.70
2022-08-26T14:16:58.633Z,1.92
2022-08-26T14:19:27.807Z,2.40
2022-08-26T14:21:55.112Z,2.38
2022-08-26T14:24:22.457Z,2.33
2022-08-26T14:26:49.921Z,2.70
2022-08-26T14:29:17.304Z,2.22
2022-08-26T14:31:44.771Z,2.00
2022-08-26T14:34:13.789Z,2.53
2022-08-26T14:36:41.182Z,2.25
2022-08-26T14:39:10.475Z,2.58
2022-08-26T14:41:42.127Z,1.80
2022-08-26T14:44:12.163Z,2.10
2022-08-26T14:47:00.772Z,2.20
2022-08-26T14:49:28.196Z,1.92
2022-08-26T14:51:55.521Z,2.75
2022-08-26T14:54:23.124Z,2.38
2022-08-26T14:56:55.365Z,2.55
2022-08-26T14:59:24.201Z,2.60
2022-08-26T15:01:52.007Z,2.78
2022-08-26T15:04:19.696Z,2.40
2022-08-26T15:06:47.454Z,2.63
2022-08-26T15:09:14.996Z,2.22
2022-08-26T15:11:42.448Z,2.63
2022-08-26T15:14:14.778Z,3.50
2022-08-26T15:16:51.896Z,2.25
2022-08-26T15:19:19.615Z,2.58
2022-08-26T15:21:47.317Z,2.22
2022-08-26T15:24:15.037Z,2.10
2022-08-26T15:26:42.340Z,2.00
2022-08-26T15:29:09.684Z,2.60
2022-08-26T15:31:36.994Z,2.72
2022-08-26T15:34:06.836Z,2.60
2022-08-26T15:36:35.520Z,2.47
2022-08-26T15:39:02.747Z,2.67
2022-08-26T15:41:30.053Z,2.50
2022-08-26T15:44:03.512Z,2.25
2022-08-26T15:46:31.810Z,2.65
2022-08-26T15:48:59.108Z,2.85
2022-08-26T15:51:27.739Z,3.20
2022-08-26T15:53:58.662Z,3.20
2022-08-26T15:56:27.548Z,3.15
2022-08-26T15:58:56.211Z,2.40
2022-08-26T16:01:27.608Z,2.55
2022-08-26T16:03:55.347Z,2.40
2022-08-26T16:06:24.490Z,2.53
2022-08-26T16:08:51.840Z,3.05
2022-08-26T16:11:19.872Z,2.63
2022-08-26T16:13:47.983Z,2.80
2022-08-26T16:16:15.877Z,2.58
2022-08-26T16:18:43.371Z,2.55
2022-08-26T16:21:16.146Z,2.90
2022-08-26T16:23:44.963Z,2.90
2022-08-26T16:26:14.060Z,2.75
2022-08-26T16:28:41.438Z,2.72
2022-08-26T16:31:11.046Z,3.10
2022-08-26T16:33:38.270Z,3.00
2022-08-26T16:36:06.668Z,2.90
2022-08-26T16:38:34.261Z,2.90
2022-08-26T16:41:01.637Z,2.97
2022-08-26T16:43:28.915Z,2.95
2022-08-26T16:45:56.520Z,2.90
2022-08-26T16:48:23.827Z,2.72
2022-08-26T16:50:51.555Z,2.70
2022-08-26T16:53:19.114Z,2.97
2022-08-26T16:55:50.232Z,3.35
2022-08-26T16:58:18.111Z,3.00
2022-08-26T17:00:45.398Z,3.17
2022-08-26T17:03:12.704Z,3.38
2022-08-26T17:05:40.477Z,3.88
2022-08-26T17:08:07.860Z,3.35
2022-08-26T17:10:35.467Z,3.42
2022-08-26T17:13:03.181Z,3.60
2022-08-26T17:15:30.510Z,3.97
2022-08-26T17:17:57.775Z,3.50
2022-08-26T17:20:25.628Z,4.40
2022-08-26T17:22:53.885Z,4.55
2022-08-26T17:25:23.780Z,5.03
2022-08-26T17:27:54.339Z,4.72
2022-08-26T17:32:49.025Z,4.53
2022-08-26T17:35:16.962Z,4.60
2022-08-26T17:37:44.351Z,4.28
2022-08-26T17:40:13.289Z,4.30
2022-08-26T17:42:41.381Z,4.03
2022-08-26T17:45:09.287Z,4.13
2022-08-26T17:47:36.643Z,4.15
2022-08-26T17:50:05.590Z,4.13
2022-08-26T17:52:32.946Z,4.30
2022-08-26T17:55:00.145Z,4.32
2022-08-26T17:57:27.817Z,4.60
2022-08-26T17:59:56.568Z,4.95
2022-08-26T18:02:24.419Z,4.40
2022-08-26T18:04:51.745Z,4.53
2022-08-26T18:07:18.967Z,5.00
2022-08-26T18:09:46.193Z,5.22
2022-08-26T18:12:13.454Z,4.97
2022-08-26T18:14:40.659Z,4.82
2022-08-26T18:17:07.833Z,6.50
2022-08-26T18:19:35.381Z,5.70
2022-08-26T18:22:02.554Z,6.03
2022-08-26T18:24:32.121Z,6.18
2022-08-26T18:26:59.438Z,6.97
2022-08-26T18:29:27.890Z,7.10
2022-08-26T18:31:55.064Z,6.63
2022-08-26T18:34:22.578Z,7.38
2022-08-26T18:36:52.288Z,6.85
2022-08-26T18:39:19.520Z,7.40
2022-08-26T18:41:53.127Z,6.63
2022-08-26T18:44:24.137Z,6.78
2022-08-26T18:46:52.211Z,6.40
2022-08-26T18:49:20.597Z,6.25
2022-08-26T18:51:50.558Z,7.25
2022-08-26T18:56:49.989Z,9.30
2022-08-26T18:59:17.492Z,9.07
2022-08-26T19:01:45.390Z,9.45
2022-08-26T19:04:15.528Z,10.18
2022-08-26T19:06:43.402Z,10.23
2022-08-26T19:09:12.009Z,10.93
2022-08-26T19:11:43.170Z,11.40
2022-08-26T19:14:13.511Z,10.32
2022-08-26T19:16:41.712Z,10.77
2022-08-26T19:19:09.032Z,11.40
2022-08-26T19:21:37.106Z,9.40
2022-08-26T19:24:07.158Z,9.52
2022-08-26T19:26:34.503Z,10.05
2022-08-26T19:29:01.733Z,9.23
2022-08-26T19:31:29.086Z,8.35
2022-08-26T19:33:58.160Z,9.18
2022-08-26T19:36:25.550Z,8.60
2022-08-26T19:38:53.210Z,7.75
2022-08-26T19:41:24.567Z,8.07
2022-08-26T19:43:58.630Z,8.38
2022-08-26T19:46:26.807Z,9.00
2022-08-26T19:48:55.761Z,8.38
2022-08-26T19:51:24.623Z,8.05
2022-08-26T19:53:52.603Z,7.57
2022-08-26T19:56:20.425Z,7.75
2022-08-26T19:58:47.992Z,7.75
2022-08-26T20:01:15.956Z,9.00
2022-08-26T20:03:43.766Z,7.20
2022-08-26T20:06:11.577Z,7.00
2022-08-26T20:08:39.644Z,7.63
2022-08-26T20:11:09.085Z,7.40
2022-08-26T20:13:36.811Z,7.60
2022-08-26T20:16:04.403Z,7.30
2022-08-26T20:18:50.261Z,6.75
2022-08-26T20:21:26.866Z,7.60
2022-08-26T20:23:55.615Z,7.20
2022-08-26T20:26:23.093Z,6.72
2022-08-26T20:28:51.036Z,6.90
2022-08-26T20:31:19.407Z,6.63
2022-08-26T20:33:47.459Z,6.70
2022-08-26T20:36:15.477Z,6.90
2022-08-26T20:38:42.888Z,6.70
2022-08-26T20:41:10.525Z,6.93
2022-08-26T20:43:37.880Z,6.95
2022-08-26T20:46:12.687Z,6.75
2022-08-26T20:48:46.104Z,6.45
2022-08-26T20:51:13.314Z,6.82
2022-08-26T20:53:41.334Z,6.57
2022-08-26T20:56:09.662Z,6.22
2022-08-26T20:58:37.084Z,6.70
2022-08-26T21:01:08.043Z,5.65
2022-08-26T21:03:36.507Z,6.63
2022-08-26T21:06:03.922Z,7.00
2022-08-26T21:08:33.228Z,6.20
2022-08-26T21:11:02.013Z,6.90
2022-08-26T21:13:42.757Z,6.78
2022-08-26T21:16:16.070Z,6.68
2022-08-26T21:18:43.405Z,6.47
2022-08-26T21:21:10.849Z,6.53
2022-08-26T21:23:38.672Z,6.97
2022-08-26T21:26:13.070Z,6.80
2022-08-26T21:28:41.899Z,7.18
2022-08-26T21:31:10.629Z,7.22
2022-08-26T21:33:38.396Z,6.75
2022-08-26T21:36:06.432Z,7.03
2022-08-26T21:38:33.911Z,6.75
2022-08-26T21:41:02.464Z,6.85
2022-08-26T21:43:35.572Z,6.97
2022-08-26T21:46:14.563Z,6.40
2022-08-26T21:48:50.038Z,6.50
2022-08-26T21:51:19.421Z,6.72
2022-08-26T21:53:46.968Z,6.10
2022-08-26T21:56:15.379Z,6.80
2022-08-26T21:58:42.636Z,6.85
2022-08-26T22:01:11.198Z,7.47
2022-08-26T22:03:47.642Z,7.13
2022-08-26T22:06:16.850Z,7.65
2022-08-26T22:08:44.417Z,7.22
2022-08-26T22:11:11.981Z,6.93
2022-08-26T22:13:40.709Z,6.90
2022-08-26T22:16:08.189Z,6.57
2022-08-26T22:18:36.493Z,6.80
2022-08-26T22:21:05.672Z,6.47
2022-08-26T22:23:32.988Z,6.20
2022-08-26T22:26:00.225Z,6.47
2022-08-26T22:28:28.294Z,6.03
2022-08-26T22:30:55.930Z,6.65
2022-08-26T22:33:23.139Z,6.72
2022-08-26T22:35:51.210Z,6.43
2022-08-26T22:38:18.506Z,6.70
2022-08-26T22:40:47.264Z,6.63
2022-08-26T22:43:15.103Z,6.05
2022-08-26T22:45:43.331Z,7.00
2022-08-26T22:48:10.810Z,6.20
2022-08-26T22:50:38.472Z,7.70
2022-08-26T22:53:05.673Z,7.45
2022-08-26T22:55:32.994Z,8.45
2022-08-26T22:58:00.288Z,7.50
2022-08-26T23:00:32.235Z,7.30
2022-08-26T23:03:00.157Z,7.45
2022-08-26T23:05:27.581Z,7.45
2022-08-26T23:07:56.259Z,8.02
2022-08-26T23:10:23.824Z,7.97
2022-08-26T23:12:53.388Z,8.00
2022-08-26T23:15:21.045Z,8.70
2022-08-26T23:17:48.569Z,8.23
2022-08-26T23:20:26.468Z,7.82
2022-08-26T23:22:53.743Z,7.90
2022-08-26T23:25:21.171Z,7.78
2022-08-26T23:27:48.725Z,8.00
2022-08-26T23:30:17.660Z,7.28
2022-08-26T23:32:44.901Z,7.38
2022-08-26T23:35:14.203Z,8.00
2022-08-26T23:37:43.756Z,7.75
2022-08-26T23:40:13.012Z,8.00
2022-08-26T23:42:40.427Z,7.43
2022-08-26T23:45:08.405Z,7.40
2022-08-26T23:47:35.804Z,7.45
2022-08-26T23:50:03.009Z,8.05
2022-08-26T23:52:48.791Z,7.18
2022-08-26T23:55:16.362Z,7.30
2022-08-26T23:57:43.622Z,7.00
